PWSweather.com
Personal Weather Stations
Station Observations
JOE4SPEED
Jupiter, Fl, Jupiter, FL 33458

Jupiter, FlJupiter, FL 33458

Lat: 26.9373, Lon: -80.1101

Elevation: 12

Station Type: Davis VP 2

http://www.joe4speed.com/wxindex.php

High Low Average
Temperature 82.3°F27.9°F 70.4°F21.3°F 76.5°F24.7°F
Dew Point 70.8°F21.6°F 65.7°F18.7°F 68.4°F20.2°F
Winds 12.7 mph ESE20.4 mph ESE Calm Calm 6.4 mph 10.3 mph
Wind Gusts 19.6 mph31.5 mph -- 9.9 mph15.9 mph
Humidity 86% 66% 76%
Pressure 30.26 in1024.70 in 30.15 in1021.00 in -
Precipitation 0.04 in1.00 in - -
Hour Temp Dew Point Humidity Winds Wind Gusts Pressure Precip Precip Rate Daily Precip Total
12:00 AM 73.7°F23.2°C 66.0°F18.9°C 77% 4.6 mph NE7.4 kmh NE 11.5 mph18.5 kmh 30.17 in1021.7 mb - 0.00 in0.0 mm 0.00 in0.0 mm
12:10 AM 73.8°F23.2°C 66.1°F18.9°C 77% 3.5 mph NE5.6 kmh NE 5.8 mph9.3 kmh 30.17 in1021.7 mb - 0.00 in0.0 mm 0.00 in0.0 mm
12:20 AM 73.9°F23.3°C 66.2°F19.0°C 77% 2.3 mph ENE3.7 kmh ENE 8.1 mph13.0 kmh 30.18 in1022.0 mb - 0.00 in0.0 mm 0.00 in0.0 mm
12:30 AM 74.0°F23.3°C 66.3°F19.1°C 77% 5.8 mph E9.3 kmh E 11.5 mph18.5 kmh 30.17 in1021.7 mb - 0.00 in0.0 mm 0.00 in0.0 mm
12:40 AM 74.0°F23.3°C 66.3°F19.1°C 77% 2.3 mph E3.7 kmh E 9.2 mph14.8 kmh 30.18 in1022.0 mb - 0.00 in0.0 mm 0.00 in0.0 mm
12:50 AM 74.1°F23.4°C 66.8°F19.3°C 78% 2.3 mph E3.7 kmh E 4.6 mph7.4 kmh 30.17 in1021.7 mb - 0.00 in0.0 mm 0.00 in0.0 mm
01:00 AM 73.9°F23.3°C 66.2°F19.0°C 77% 4.6 mph E7.4 kmh E 10.4 mph16.7 kmh 30.17 in1021.7 mb - 0.00 in0.0 mm 0.00 in0.0 mm
01:10 AM 73.9°F23.3°C 66.6°F19.2°C 78% 6.9 mph ENE11.1 kmh ENE 11.5 mph18.5 kmh 30.17 in1021.7 mb - 0.00 in0.0 mm 0.00 in0.0 mm
01:20 AM 73.9°F23.3°C 66.2°F19.0°C 77% 4.6 mph E7.4 kmh E 5.8 mph9.3 kmh 30.17 in1021.7 mb - 0.00 in0.0 mm 0.00 in0.0 mm
01:30 AM 74.1°F23.4°C 66.8°F19.3°C 78% 6.9 mph E11.1 kmh E 12.7 mph20.4 kmh 30.16 in1021.3 mb - 0.00 in0.0 mm 0.00 in0.0 mm
01:40 AM 73.9°F23.3°C 66.6°F19.2°C 78% 6.9 mph E11.1 kmh E 12.7 mph20.4 kmh 30.16 in1021.3 mb - 0.00 in0.0 mm 0.00 in0.0 mm
01:50 AM 73.7°F23.2°C 66.8°F19.3°C 79% 8.1 mph E13.0 kmh E 11.5 mph18.5 kmh 30.16 in1021.3 mb - 0.00 in0.0 mm 0.00 in0.0 mm
02:00 AM 73.5°F23.1°C 66.6°F19.2°C 79% 8.1 mph E13.0 kmh E 12.7 mph20.4 kmh 30.16 in1021.3 mb - 0.00 in0.0 mm 0.00 in0.0 mm
02:10 AM 73.4°F23.0°C 66.5°F19.2°C 79% 4.6 mph E7.4 kmh E 9.2 mph14.8 kmh 30.16 in1021.3 mb - 0.00 in0.0 mm 0.00 in0.0 mm
02:20 AM 73.4°F23.0°C 66.5°F19.2°C 79% 5.8 mph E9.3 kmh E 11.5 mph18.5 kmh 30.15 in1021.0 mb - 0.00 in0.0 mm 0.00 in0.0 mm
02:30 AM 73.3°F22.9°C 66.8°F19.3°C 80% 6.9 mph E11.1 kmh E 11.5 mph18.5 kmh 30.15 in1021.0 mb - 0.00 in0.0 mm 0.00 in0.0 mm
02:40 AM 73.4°F23.0°C 66.9°F19.4°C 80% 5.8 mph E9.3 kmh E 10.4 mph16.7 kmh 30.15 in1021.0 mb - 0.00 in0.0 mm 0.00 in0.0 mm
02:50 AM 73.5°F23.1°C 67.0°F19.4°C 80% 6.9 mph E11.1 kmh E 11.5 mph18.5 kmh 30.15 in1021.0 mb - 0.00 in0.0 mm 0.00 in0.0 mm
03:00 AM 73.8°F23.2°C 67.2°F19.6°C 80% 5.8 mph E9.3 kmh E 10.4 mph16.7 kmh 30.15 in1021.0 mb - 0.00 in0.0 mm 0.00 in0.0 mm
03:10 AM 73.7°F23.2°C 67.1°F19.5°C 80% 6.9 mph E11.1 kmh E 9.2 mph14.8 kmh 30.15 in1021.0 mb - 0.00 in0.0 mm 0.00 in0.0 mm
03:20 AM 73.8°F23.2°C 67.6°F19.8°C 81% 5.8 mph E9.3 kmh E 10.4 mph16.7 kmh 30.15 in1021.0 mb - 0.00 in0.0 mm 0.00 in0.0 mm
03:30 AM 73.6°F23.1°C 67.4°F19.7°C 81% 6.9 mph E11.1 kmh E 13.8 mph22.2 kmh 30.15 in1021.0 mb - 0.00 in0.0 mm 0.00 in0.0 mm
03:40 AM 73.8°F23.2°C 67.6°F19.8°C 81% 6.9 mph E11.1 kmh E 10.4 mph16.7 kmh 30.15 in1021.0 mb - 0.00 in0.0 mm 0.00 in0.0 mm
03:50 AM 73.8°F23.2°C 67.6°F19.8°C 81% 5.8 mph E9.3 kmh E 8.1 mph13.0 kmh 30.15 in1021.0 mb - 0.00 in0.0 mm 0.00 in0.0 mm
04:00 AM 73.8°F23.2°C 67.6°F19.8°C 81% 8.1 mph E13.0 kmh E 13.8 mph22.2 kmh 30.15 in1021.0 mb - 0.00 in0.0 mm 0.00 in0.0 mm
04:10 AM 74.0°F23.3°C 67.8°F19.9°C 81% 4.6 mph E7.4 kmh E 9.2 mph14.8 kmh 30.15 in1021.0 mb - 0.00 in0.0 mm 0.00 in0.0 mm
04:20 AM 73.9°F23.3°C 67.7°F19.8°C 81% 5.8 mph E9.3 kmh E 6.9 mph11.1 kmh 30.15 in1021.0 mb - 0.00 in0.0 mm 0.00 in0.0 mm
04:30 AM 73.8°F23.2°C 67.6°F19.8°C 81% 4.6 mph E7.4 kmh E 10.4 mph16.7 kmh 30.16 in1021.3 mb - 0.00 in0.0 mm 0.00 in0.0 mm
04:40 AM 73.9°F23.3°C 67.7°F19.8°C 81% 4.6 mph E7.4 kmh E 9.2 mph14.8 kmh 30.16 in1021.3 mb - 0.00 in0.0 mm 0.00 in0.0 mm
04:50 AM 74.2°F23.4°C 68.0°F20.0°C 81% 6.9 mph E11.1 kmh E 9.2 mph14.8 kmh 30.16 in1021.3 mb - 0.00 in0.0 mm 0.00 in0.0 mm
05:00 AM 74.4°F23.6°C 68.2°F20.1°C 81% 5.8 mph E9.3 kmh E 9.2 mph14.8 kmh 30.16 in1021.3 mb - 0.00 in0.0 mm 0.00 in0.0 mm
05:10 AM 74.3°F23.5°C 68.1°F20.1°C 81% 5.8 mph E9.3 kmh E 8.1 mph13.0 kmh 30.16 in1021.3 mb - 0.00 in0.0 mm 0.00 in0.0 mm
05:20 AM 74.2°F23.4°C 68.0°F20.0°C 81% 4.6 mph E7.4 kmh E 9.2 mph14.8 kmh 30.16 in1021.3 mb - 0.00 in0.0 mm 0.00 in0.0 mm
05:30 AM 74.2°F23.4°C 68.0°F20.0°C 81% 4.6 mph E7.4 kmh E 6.9 mph11.1 kmh 30.17 in1021.7 mb - 0.00 in0.0 mm 0.00 in0.0 mm
05:40 AM 74.2°F23.4°C 68.0°F20.0°C 81% 4.6 mph E7.4 kmh E 6.9 mph11.1 kmh 30.17 in1021.7 mb - 0.00 in0.0 mm 0.00 in0.0 mm
05:50 AM 74.4°F23.6°C 68.6°F20.3°C 82% 5.8 mph ENE9.3 kmh ENE 11.5 mph18.5 kmh 30.17 in1021.7 mb - 0.00 in0.0 mm 0.00 in0.0 mm
06:00 AM 74.5°F23.6°C 68.3°F20.2°C 81% 8.1 mph E13.0 kmh E 11.5 mph18.5 kmh 30.17 in1021.7 mb - 0.00 in0.0 mm 0.00 in0.0 mm
06:10 AM 74.7°F23.7°C 68.5°F20.3°C 81% 10.4 mph E16.7 kmh E 13.8 mph22.2 kmh 30.18 in1022.0 mb - 0.00 in0.0 mm 0.00 in0.0 mm
06:20 AM 74.9°F23.8°C 68.3°F20.2°C 80% 6.9 mph E11.1 kmh E 8.1 mph13.0 kmh 30.18 in1022.0 mb - 0.00 in0.0 mm 0.00 in0.0 mm
06:30 AM 75.0°F23.9°C 68.4°F20.2°C 80% 6.9 mph E11.1 kmh E 10.4 mph16.7 kmh 30.18 in1022.0 mb - 0.00 in0.0 mm 0.00 in0.0 mm
06:40 AM 74.9°F23.8°C 68.3°F20.2°C 80% 9.2 mph E14.8 kmh E 12.7 mph20.4 kmh 30.18 in1022.0 mb - 0.00 in0.0 mm 0.00 in0.0 mm
06:50 AM 74.9°F23.8°C 67.9°F19.9°C 79% 9.2 mph E14.8 kmh E 10.4 mph16.7 kmh 30.19 in1022.4 mb - 0.00 in0.0 mm 0.00 in0.0 mm
07:00 AM 74.8°F23.8°C 67.5°F19.7°C 78% 6.9 mph E11.1 kmh E 12.7 mph20.4 kmh 30.19 in1022.4 mb - 0.00 in0.0 mm 0.00 in0.0 mm
07:10 AM 75.2°F24.0°C 68.2°F20.1°C 79% 5.8 mph E9.3 kmh E 10.4 mph16.7 kmh 30.20 in1022.7 mb - 0.00 in0.0 mm 0.00 in0.0 mm
07:20 AM 75.2°F24.0°C 67.5°F19.7°C 77% 9.2 mph E14.8 kmh E 11.5 mph18.5 kmh 30.20 in1022.7 mb - 0.00 in0.0 mm 0.00 in0.0 mm
07:30 AM 75.3°F24.1°C 67.6°F19.8°C 77% 6.9 mph E11.1 kmh E 12.7 mph20.4 kmh 30.20 in1022.7 mb - 0.00 in0.0 mm 0.00 in0.0 mm
07:40 AM 75.6°F24.2°C 67.5°F19.7°C 76% 9.2 mph E14.8 kmh E 11.5 mph18.5 kmh 30.21 in1023.0 mb - 0.00 in0.0 mm 0.00 in0.0 mm
07:50 AM 75.8°F24.3°C 66.9°F19.4°C 74% 5.8 mph E9.3 kmh E 11.5 mph18.5 kmh 30.21 in1023.0 mb - 0.00 in0.0 mm 0.00 in0.0 mm
08:00 AM 76.1°F24.5°C 67.2°F19.6°C 74% 8.1 mph E13.0 kmh E 12.7 mph20.4 kmh 30.21 in1023.0 mb - 0.00 in0.0 mm 0.00 in0.0 mm
08:10 AM 76.6°F24.8°C 68.1°F20.1°C 75% 6.9 mph E11.1 kmh E 11.5 mph18.5 kmh 30.22 in1023.4 mb - 0.00 in0.0 mm 0.00 in0.0 mm
08:20 AM 77.1°F25.1°C 68.2°F20.1°C 74% 8.1 mph E13.0 kmh E 16.1 mph25.9 kmh 30.22 in1023.4 mb - 0.00 in0.0 mm 0.00 in0.0 mm
08:30 AM 77.3°F25.2°C 68.0°F20.0°C 73% 6.9 mph E11.1 kmh E 12.7 mph20.4 kmh 30.22 in1023.4 mb - 0.00 in0.0 mm 0.00 in0.0 mm
08:40 AM 77.5°F25.3°C 67.8°F19.9°C 72% 5.8 mph E9.3 kmh E 8.1 mph13.0 kmh 30.22 in1023.4 mb - 0.00 in0.0 mm 0.00 in0.0 mm
08:50 AM 77.9°F25.5°C 68.1°F20.1°C 72% 11.5 mph E18.5 kmh E 16.1 mph25.9 kmh 30.23 in1023.7 mb - 0.00 in0.0 mm 0.00 in0.0 mm
09:00 AM 78.5°F25.8°C 68.3°F20.2°C 71% 9.2 mph ESE14.8 kmh ESE 10.4 mph16.7 kmh 30.23 in1023.7 mb - 0.00 in0.0 mm 0.00 in0.0 mm
09:10 AM 79.4°F26.3°C 68.7°F20.4°C 70% 8.1 mph E13.0 kmh E 16.1 mph25.9 kmh 30.23 in1023.7 mb - 0.00 in0.0 mm 0.00 in0.0 mm
09:20 AM 79.1°F26.2°C 67.6°F19.8°C 68% 10.4 mph SE16.7 kmh SE 15.0 mph24.1 kmh 30.24 in1024.0 mb - 0.00 in0.0 mm 0.00 in0.0 mm
09:30 AM 79.3°F26.3°C 68.2°F20.1°C 69% 8.1 mph ESE13.0 kmh ESE 11.5 mph18.5 kmh 30.24 in1024.0 mb - 0.00 in0.0 mm 0.00 in0.0 mm
09:40 AM 79.6°F26.4°C 67.7°F19.8°C 67% 10.4 mph E16.7 kmh E 19.6 mph31.5 kmh 30.24 in1024.0 mb - 0.00 in0.0 mm 0.00 in0.0 mm
09:50 AM 79.6°F26.4°C 68.5°F20.3°C 69% 10.4 mph E16.7 kmh E 15.0 mph24.1 kmh 30.24 in1024.0 mb - 0.00 in0.0 mm 0.00 in0.0 mm
10:00 AM 80.3°F26.8°C 68.3°F20.2°C 67% 8.1 mph ESE13.0 kmh ESE 11.5 mph18.5 kmh 30.24 in1024.0 mb - 0.00 in0.0 mm 0.00 in0.0 mm
10:10 AM 80.4°F26.9°C 68.5°F20.3°C 67% 10.4 mph SE16.7 kmh SE 15.0 mph24.1 kmh 30.24 in1024.0 mb - 0.00 in0.0 mm 0.00 in0.0 mm
10:20 AM 80.2°F26.8°C 68.2°F20.1°C 67% 11.5 mph SE18.5 kmh SE 16.1 mph25.9 kmh 30.24 in1024.0 mb - 0.00 in0.0 mm 0.00 in0.0 mm
10:30 AM 80.1°F26.7°C 68.2°F20.1°C 67% 10.4 mph E16.7 kmh E 13.8 mph22.2 kmh 30.24 in1024.0 mb - 0.00 in0.0 mm 0.00 in0.0 mm
10:40 AM 80.3°F26.8°C 68.8°F20.4°C 68% 10.4 mph SE16.7 kmh SE 13.8 mph22.2 kmh 30.24 in1024.0 mb - 0.00 in0.0 mm 0.00 in0.0 mm
10:50 AM 80.9°F27.2°C 69.3°F20.7°C 68% 8.1 mph ESE13.0 kmh ESE 11.5 mph18.5 kmh 30.24 in1024.0 mb - 0.00 in0.0 mm 0.00 in0.0 mm
11:00 AM 80.7°F27.1°C 69.1°F20.6°C 68% 9.2 mph ESE14.8 kmh ESE 11.5 mph18.5 kmh 30.24 in1024.0 mb - 0.00 in0.0 mm 0.00 in0.0 mm
11:10 AM 81.4°F27.4°C 69.8°F21.0°C 68% 9.2 mph E14.8 kmh E 12.7 mph20.4 kmh 30.24 in1024.0 mb - 0.00 in0.0 mm 0.00 in0.0 mm
11:20 AM 81.2°F27.3°C 69.7°F20.9°C 68% 11.5 mph E18.5 kmh E 16.1 mph25.9 kmh 30.24 in1024.0 mb - 0.00 in0.0 mm 0.00 in0.0 mm
11:30 AM 81.0°F27.2°C 69.5°F20.8°C 68% 11.5 mph E18.5 kmh E 17.3 mph27.8 kmh 30.24 in1024.0 mb - 0.00 in0.0 mm 0.00 in0.0 mm
11:40 AM 80.5°F26.9°C 68.9°F20.5°C 68% 10.4 mph ESE16.7 kmh ESE 12.7 mph20.4 kmh 30.24 in1024.0 mb - 0.00 in0.0 mm 0.00 in0.0 mm
11:50 AM 81.4°F27.4°C 69.0°F20.6°C 66% 11.5 mph ESE18.5 kmh ESE 16.1 mph25.9 kmh 30.23 in1023.7 mb - 0.00 in0.0 mm 0.00 in0.0 mm
12:00 PM 81.5°F27.5°C 70.0°F21.1°C 68% 6.9 mph E11.1 kmh E 11.5 mph18.5 kmh 30.23 in1023.7 mb - 0.00 in0.0 mm 0.00 in0.0 mm
12:10 PM 82.1°F27.8°C 69.6°F20.9°C 66% 8.1 mph ESE13.0 kmh ESE 11.5 mph18.5 kmh 30.22 in1023.4 mb - 0.00 in0.0 mm 0.00 in0.0 mm
12:20 PM 81.7°F27.6°C 69.3°F20.7°C 66% 9.2 mph E14.8 kmh E 11.5 mph18.5 kmh 30.22 in1023.4 mb - 0.00 in0.0 mm 0.00 in0.0 mm
12:30 PM 81.6°F27.6°C 69.6°F20.9°C 67% 6.9 mph E11.1 kmh E 15.0 mph24.1 kmh 30.22 in1023.4 mb - 0.00 in0.0 mm 0.00 in0.0 mm
12:40 PM 81.8°F27.7°C 69.3°F20.7°C 66% 9.2 mph ESE14.8 kmh ESE 12.7 mph20.4 kmh 30.21 in1023.0 mb - 0.00 in0.0 mm 0.00 in0.0 mm
12:50 PM 81.0°F27.2°C 68.6°F20.3°C 66% 10.4 mph ESE16.7 kmh ESE 12.7 mph20.4 kmh 30.22 in1023.4 mb - 0.00 in0.0 mm 0.00 in0.0 mm
01:00 PM 80.4°F26.9°C 69.3°F20.7°C 69% 9.2 mph SE14.8 kmh SE 16.1 mph25.9 kmh 30.21 in1023.0 mb - 0.00 in0.0 mm 0.00 in0.0 mm
01:10 PM 81.3°F27.4°C 69.8°F21.0°C 68% 8.1 mph ESE13.0 kmh ESE 11.5 mph18.5 kmh 30.21 in1023.0 mb - 0.00 in0.0 mm 0.00 in0.0 mm
01:20 PM 82.2°F27.9°C 70.1°F21.2°C 67% 12.7 mph ESE20.4 kmh ESE 19.6 mph31.5 kmh 30.20 in1022.7 mb - 0.00 in0.0 mm 0.00 in0.0 mm
01:30 PM 80.5°F26.9°C 69.0°F20.6°C 68% 11.5 mph SE18.5 kmh SE 16.1 mph25.9 kmh 30.20 in1022.7 mb - 0.00 in0.0 mm 0.00 in0.0 mm
01:40 PM 81.1°F27.3°C 69.9°F21.1°C 69% 9.2 mph ESE14.8 kmh ESE 12.7 mph20.4 kmh 30.20 in1022.7 mb - 0.00 in0.0 mm 0.00 in0.0 mm
01:50 PM 81.1°F27.3°C 69.1°F20.6°C 67% 10.4 mph ESE16.7 kmh ESE 16.1 mph25.9 kmh 30.19 in1022.4 mb - 0.00 in0.0 mm 0.00 in0.0 mm
02:00 PM 82.3°F27.9°C 70.2°F21.2°C 67% 8.1 mph SE13.0 kmh SE 17.3 mph27.8 kmh 30.19 in1022.4 mb - 0.00 in0.0 mm 0.00 in0.0 mm
02:10 PM 80.8°F27.1°C 69.2°F20.7°C 68% 10.4 mph E16.7 kmh E 16.1 mph25.9 kmh 30.19 in1022.4 mb - 0.00 in0.0 mm 0.00 in0.0 mm
02:20 PM 80.7°F27.1°C 69.1°F20.6°C 68% 11.5 mph SE18.5 kmh SE 15.0 mph24.1 kmh 30.18 in1022.0 mb - 0.00 in0.0 mm 0.00 in0.0 mm
02:30 PM 81.7°F27.6°C 69.6°F20.9°C 67% 9.2 mph ESE14.8 kmh ESE 9.2 mph14.8 kmh 30.18 in1022.0 mb - 0.00 in0.0 mm 0.00 in0.0 mm
02:40 PM 81.7°F27.6°C 70.1°F21.2°C 68% 6.9 mph ESE11.1 kmh ESE 11.5 mph18.5 kmh 30.18 in1022.0 mb - 0.00 in0.0 mm 0.00 in0.0 mm
02:50 PM 80.4°F26.9°C 69.3°F20.7°C 69% 6.9 mph ESE11.1 kmh ESE 9.2 mph14.8 kmh 30.18 in1022.0 mb - 0.00 in0.0 mm 0.00 in0.0 mm
03:00 PM 80.3°F26.8°C 70.0°F21.1°C 71% 5.8 mph E9.3 kmh E 8.1 mph13.0 kmh 30.18 in1022.0 mb - 0.00 in0.0 mm 0.00 in0.0 mm
03:10 PM 79.8°F26.6°C 69.9°F21.1°C 72% 6.9 mph E11.1 kmh E 16.1 mph25.9 kmh 30.18 in1022.0 mb - 0.00 in0.0 mm 0.00 in0.0 mm
03:20 PM 79.7°F26.5°C 69.9°F21.1°C 72% 10.4 mph SE16.7 kmh SE 15.0 mph24.1 kmh 30.17 in1021.7 mb - 0.00 in0.0 mm 0.00 in0.0 mm
03:30 PM 79.9°F26.6°C 70.5°F21.4°C 73% 10.4 mph SE16.7 kmh SE 12.7 mph20.4 kmh 30.18 in1022.0 mb - 0.00 in0.0 mm 0.00 in0.0 mm
03:40 PM 79.3°F26.3°C 70.3°F21.3°C 74% 9.2 mph E14.8 kmh E 13.8 mph22.2 kmh 30.18 in1022.0 mb - 0.00 in0.0 mm 0.00 in0.0 mm
03:50 PM 80.2°F26.8°C 70.4°F21.3°C 72% 6.9 mph ESE11.1 kmh ESE 9.2 mph14.8 kmh 30.18 in1022.0 mb - 0.00 in0.0 mm 0.00 in0.0 mm
04:00 PM 79.7°F26.5°C 70.7°F21.5°C 74% 8.1 mph ESE13.0 kmh ESE 11.5 mph18.5 kmh 30.18 in1022.0 mb - 0.00 in0.0 mm 0.00 in0.0 mm
04:10 PM 79.7°F26.5°C 70.7°F21.5°C 74% 9.2 mph E14.8 kmh E 11.5 mph18.5 kmh 30.18 in1022.0 mb - 0.00 in0.0 mm 0.00 in0.0 mm
04:20 PM 79.3°F26.3°C 70.3°F21.3°C 74% 6.9 mph E11.1 kmh E 11.5 mph18.5 kmh 30.18 in1022.0 mb - 0.00 in0.0 mm 0.00 in0.0 mm
04:30 PM 78.9°F26.1°C 70.3°F21.3°C 75% 6.9 mph ESE11.1 kmh ESE 8.1 mph13.0 kmh 30.19 in1022.4 mb - 0.00 in0.0 mm 0.00 in0.0 mm
04:40 PM 78.6°F25.9°C 70.4°F21.3°C 76% 4.6 mph E7.4 kmh E 6.9 mph11.1 kmh 30.19 in1022.4 mb - 0.00 in0.0 mm 0.00 in0.0 mm
04:50 PM 78.3°F25.7°C 70.5°F21.4°C 77% 5.8 mph SE9.3 kmh SE 8.1 mph13.0 kmh 30.19 in1022.4 mb - 0.00 in0.0 mm 0.00 in0.0 mm
05:00 PM 78.3°F25.7°C 70.8°F21.6°C 78% 6.9 mph E11.1 kmh E 11.5 mph18.5 kmh 30.19 in1022.4 mb - 0.00 in0.0 mm 0.00 in0.0 mm
05:10 PM 78.4°F25.8°C 70.6°F21.4°C 77% 6.9 mph SE11.1 kmh SE 9.2 mph14.8 kmh 30.19 in1022.4 mb - 0.00 in0.0 mm 0.00 in0.0 mm
05:20 PM 78.2°F25.7°C 70.7°F21.5°C 78% 8.1 mph ESE13.0 kmh ESE 11.5 mph18.5 kmh 30.19 in1022.4 mb - 0.00 in0.0 mm 0.00 in0.0 mm
05:30 PM 78.2°F25.7°C 70.8°F21.6°C 78% 3.5 mph E5.6 kmh E 8.1 mph13.0 kmh 30.19 in1022.4 mb - 0.00 in0.0 mm 0.00 in0.0 mm
05:40 PM 77.9°F25.5°C 70.5°F21.4°C 78% 4.6 mph ESE7.4 kmh ESE 5.8 mph9.3 kmh 30.19 in1022.4 mb - 0.00 in0.0 mm 0.00 in0.0 mm
05:50 PM 77.7°F25.4°C 70.7°F21.5°C 79% 5.8 mph ESE9.3 kmh ESE 8.1 mph13.0 kmh 30.20 in1022.7 mb - 0.00 in0.0 mm 0.00 in0.0 mm
06:00 PM 77.5°F25.3°C 70.5°F21.4°C 79% 2.3 mph ESE3.7 kmh ESE 3.5 mph5.6 kmh 30.20 in1022.7 mb - 0.00 in0.0 mm 0.00 in0.0 mm
06:10 PM 77.3°F25.2°C 70.3°F21.3°C 79% 3.5 mph E5.6 kmh E 3.5 mph5.6 kmh 30.20 in1022.7 mb - 0.00 in0.0 mm 0.00 in0.0 mm
06:20 PM 77.1°F25.1°C 70.5°F21.4°C 80% Calm Calm -- 30.20 in1022.7 mb - 0.00 in0.0 mm 0.00 in0.0 mm
06:30 PM 77.1°F25.1°C 70.5°F21.4°C 80% 4.6 mph E7.4 kmh E 6.9 mph11.1 kmh 30.21 in1023.0 mb - 0.00 in0.0 mm 0.00 in0.0 mm
06:40 PM 76.9°F24.9°C 70.3°F21.3°C 80% 2.3 mph E3.7 kmh E 5.8 mph9.3 kmh 30.20 in1022.7 mb - 0.00 in0.0 mm 0.00 in0.0 mm
06:50 PM 76.8°F24.9°C 70.5°F21.4°C 81% 2.3 mph ESE3.7 kmh ESE 3.5 mph5.6 kmh 30.20 in1022.7 mb - 0.00 in0.0 mm 0.00 in0.0 mm
07:00 PM 76.7°F24.8°C 70.4°F21.3°C 81% 3.5 mph E5.6 kmh E 3.5 mph5.6 kmh 30.21 in1023.0 mb - 0.00 in0.0 mm 0.00 in0.0 mm
07:10 PM 76.7°F24.8°C 70.4°F21.3°C 81% 3.5 mph ESE5.6 kmh ESE 5.8 mph9.3 kmh 30.21 in1023.0 mb - 0.00 in0.0 mm 0.00 in0.0 mm
07:20 PM 76.7°F24.8°C 70.4°F21.3°C 81% 3.5 mph ESE5.6 kmh ESE 4.6 mph7.4 kmh 30.21 in1023.0 mb - 0.00 in0.0 mm 0.00 in0.0 mm
07:30 PM 76.9°F24.9°C 70.6°F21.4°C 81% 4.6 mph E7.4 kmh E 6.9 mph11.1 kmh 30.21 in1023.0 mb - 0.00 in0.0 mm 0.00 in0.0 mm
07:40 PM 76.7°F24.8°C 70.4°F21.3°C 81% 5.8 mph ESE9.3 kmh ESE 6.9 mph11.1 kmh 30.22 in1023.4 mb - 0.00 in0.0 mm 0.00 in0.0 mm
07:50 PM 75.9°F24.4°C 68.9°F20.5°C 79% 6.9 mph E11.1 kmh E 9.2 mph14.8 kmh 30.22 in1023.4 mb - 0.00 in0.0 mm 0.00 in0.0 mm
08:00 PM 75.2°F24.0°C 68.3°F20.2°C 79% 3.5 mph ESE5.6 kmh ESE 5.8 mph9.3 kmh 30.22 in1023.4 mb - 0.00 in0.0 mm 0.00 in0.0 mm
08:10 PM 74.4°F23.6°C 67.1°F19.5°C 78% 4.6 mph SE7.4 kmh SE 8.1 mph13.0 kmh 30.23 in1023.7 mb - 0.00 in0.0 mm 0.00 in0.0 mm
08:20 PM 74.1°F23.4°C 66.8°F19.3°C 78% 1.2 mph ESE1.9 kmh ESE 2.3 mph3.7 kmh 30.23 in1023.7 mb - 0.00 in0.0 mm 0.00 in0.0 mm
08:30 PM 74.0°F23.3°C 66.7°F19.3°C 78% Calm Calm -- 30.23 in1023.7 mb - 0.00 in0.0 mm 0.00 in0.0 mm
08:40 PM 74.0°F23.3°C 66.7°F19.3°C 78% Calm Calm 5.8 mph9.3 kmh 30.24 in1024.0 mb - 0.00 in0.0 mm 0.00 in0.0 mm
08:50 PM 74.3°F23.5°C 67.4°F19.7°C 79% 1.2 mph ESE1.9 kmh ESE 3.5 mph5.6 kmh 30.24 in1024.0 mb - 0.00 in0.0 mm 0.00 in0.0 mm
09:00 PM 74.7°F23.7°C 67.8°F19.9°C 79% 8.1 mph E13.0 kmh E 9.2 mph14.8 kmh 30.25 in1024.4 mb - 0.00 in0.0 mm 0.00 in0.0 mm
09:10 PM 74.1°F23.4°C 67.9°F19.9°C 81% 4.6 mph E7.4 kmh E 5.8 mph9.3 kmh 30.25 in1024.4 mb - 0.00 in0.0 mm 0.00 in0.0 mm
09:20 PM 72.9°F22.7°C 67.1°F19.5°C 82% 4.6 mph E7.4 kmh E 4.6 mph7.4 kmh 30.26 in1024.7 mb - 0.00 in0.0 mm 0.00 in0.0 mm
09:30 PM 72.0°F22.2°C 66.5°F19.2°C 83% 2.3 mph ESE3.7 kmh ESE 3.5 mph5.6 kmh 30.26 in1024.7 mb - 0.01 in0.3 mm 0.01 in0.3 mm
09:40 PM 71.6°F22.0°C 66.5°F19.2°C 84% 3.5 mph E5.6 kmh E 5.8 mph9.3 kmh 30.26 in1024.7 mb - 0.03 in0.8 mm 0.04 in1.0 mm
09:50 PM 71.4°F21.9°C 66.7°F19.3°C 85% 3.5 mph ESE5.6 kmh ESE 5.8 mph9.3 kmh 30.25 in1024.4 mb - 0.00 in0.0 mm 0.04 in1.0 mm
10:00 PM 71.6°F22.0°C 66.8°F19.3°C 85% 4.6 mph E7.4 kmh E 9.2 mph14.8 kmh 30.25 in1024.4 mb - 0.00 in0.0 mm 0.04 in1.0 mm
10:10 PM 71.0°F21.7°C 66.3°F19.1°C 85% 1.2 mph E1.9 kmh E 3.5 mph5.6 kmh 30.25 in1024.4 mb - 0.00 in0.0 mm 0.04 in1.0 mm
10:20 PM 70.6°F21.4°C 65.9°F18.8°C 85% Calm Calm 1.2 mph1.9 kmh 30.25 in1024.4 mb - 0.00 in0.0 mm 0.04 in1.0 mm
10:30 PM 70.4°F21.3°C 65.7°F18.7°C 85% 1.2 mph E1.9 kmh E 3.5 mph5.6 kmh 30.26 in1024.7 mb - 0.00 in0.0 mm 0.04 in1.0 mm
10:40 PM 71.5°F21.9°C 67.1°F19.5°C 86% 3.5 mph SE5.6 kmh SE 6.9 mph11.1 kmh 30.26 in1024.7 mb - 0.00 in0.0 mm 0.04 in1.0 mm
10:50 PM 71.8°F22.1°C 67.0°F19.4°C 85% 4.6 mph ESE7.4 kmh ESE 5.8 mph9.3 kmh 30.26 in1024.7 mb - 0.00 in0.0 mm 0.04 in1.0 mm
11:00 PM 72.3°F22.4°C 67.5°F19.7°C 85% 2.3 mph SE3.7 kmh SE 4.6 mph7.4 kmh 30.25 in1024.4 mb - 0.00 in0.0 mm 0.04 in1.0 mm
11:10 PM 72.2°F22.3°C 67.4°F19.7°C 85% 2.3 mph SE3.7 kmh SE 3.5 mph5.6 kmh 30.25 in1024.4 mb - 0.00 in0.0 mm 0.04 in1.0 mm
11:20 PM 71.9°F22.2°C 67.1°F19.5°C 85% 3.5 mph SE5.6 kmh SE 4.6 mph7.4 kmh 30.26 in1024.7 mb - 0.00 in0.0 mm 0.04 in1.0 mm
11:30 PM 71.7°F22.1°C 66.9°F19.4°C 85% 1.2 mph SE1.9 kmh SE 3.5 mph5.6 kmh 30.25 in1024.4 mb - 0.00 in0.0 mm 0.04 in1.0 mm
11:40 PM 71.6°F22.0°C 66.8°F19.3°C 85% 2.3 mph SE3.7 kmh SE 3.5 mph5.6 kmh 30.25 in1024.4 mb - 0.00 in0.0 mm 0.04 in1.0 mm
11:50 PM 71.5°F21.9°C 66.8°F19.3°C 85% Calm Calm -- 30.25 in1024.4 mb - 0.00 in0.0 mm 0.04 in1.0 mm